createdAt,value
2022-09-09T00:01:35.527Z,5.57
2022-09-09T00:04:15.367Z,2.17
2022-09-09T00:06:48.864Z,2.53
2022-09-09T00:09:19.268Z,3.08
2022-09-09T00:11:53.746Z,2.40
2022-09-09T00:14:29.551Z,2.47
2022-09-09T00:17:05.085Z,4.82
2022-09-09T00:19:41.326Z,3.90
2022-09-09T00:22:18.349Z,2.13
2022-09-09T00:24:49.078Z,2.05
2022-09-09T00:27:26.519Z,3.55
2022-09-09T00:29:59.914Z,3.00
2022-09-09T00:32:33.029Z,4.95
2022-09-09T00:35:16.991Z,2.70
2022-09-09T00:37:48.328Z,3.10
2022-09-09T00:40:25.492Z,2.13
2022-09-09T00:43:09.916Z,1.30
2022-09-09T00:46:12.817Z,1.90
2022-09-09T00:48:54.259Z,2.72
2022-09-09T00:51:37.957Z,3.92
2022-09-09T00:54:24.197Z,4.13
2022-09-09T00:57:05.147Z,2.72
2022-09-09T00:59:47.655Z,2.97
2022-09-09T01:02:30.340Z,2.10
2022-09-09T01:05:09.691Z,2.60
2022-09-09T01:07:38.662Z,3.83
2022-09-09T01:10:18.597Z,3.65
2022-09-09T01:12:50.992Z,2.28
2022-09-09T01:15:27.954Z,2.20
2022-09-09T01:18:03.542Z,1.97
2022-09-09T01:20:46.731Z,1.65
2022-09-09T01:23:33.448Z,3.33
2022-09-09T01:26:20.379Z,1.88
2022-09-09T01:28:53.695Z,2.95
2022-09-09T01:31:32.835Z,1.98
2022-09-09T01:34:02.172Z,2.78
2022-09-09T01:36:41.233Z,3.17
2022-09-09T01:39:10.402Z,4.32
2022-09-09T01:41:40.986Z,2.70
2022-09-09T01:44:15.879Z,1.95
2022-09-09T01:46:47.359Z,3.45
2022-09-09T01:49:20.322Z,1.67
2022-09-09T01:51:52.926Z,4.32
2022-09-09T01:54:30.273Z,1.85
2022-09-09T01:57:12.120Z,2.67
2022-09-09T02:00:01.640Z,2.00
2022-09-09T02:02:38.782Z,4.45
2022-09-09T02:05:26.753Z,1.50
2022-09-09T02:08:03.361Z,3.95
2022-09-09T02:10:50.481Z,1.65
2022-09-09T02:13:37.311Z,2.33
2022-09-09T02:16:10.522Z,2.50
2022-09-09T02:18:45.279Z,2.17
2022-09-09T02:21:16.141Z,1.83
2022-09-09T02:23:47.854Z,1.88
2022-09-09T02:26:22.570Z,1.38
2022-09-09T02:29:01.829Z,1.52
2022-09-09T02:31:31.011Z,2.00
2022-09-09T02:34:07.664Z,1.10
2022-09-09T02:36:39.228Z,3.50
2022-09-09T02:39:12.393Z,2.35
2022-09-09T02:41:44.169Z,1.45
2022-09-09T02:44:18.056Z,1.98
2022-09-09T02:47:15.174Z,1.80
2022-09-09T02:49:54.003Z,2.00
2022-09-09T02:52:29.593Z,2.55
2022-09-09T02:57:35.253Z,2.08
2022-09-09T03:00:07.110Z,2.10
2022-09-09T03:02:37.233Z,2.17
2022-09-09T03:05:09.323Z,1.92
2022-09-09T03:07:38.590Z,1.48
2022-09-09T03:10:09.096Z,2.88
2022-09-09T03:12:39.848Z,1.05
2022-09-09T03:15:11.234Z,4.38
2022-09-09T03:17:42.272Z,3.00
2022-09-09T03:20:11.845Z,1.27
2022-09-09T03:22:41.377Z,1.40
2022-09-09T03:25:10.981Z,1.58
2022-09-09T03:27:39.929Z,2.63
2022-09-09T03:30:12.851Z,3.10
2022-09-09T03:32:45.932Z,3.35
2022-09-09T03:35:18.099Z,6.60
2022-09-09T03:37:47.142Z,2.42
2022-09-09T03:40:20.540Z,2.13
2022-09-09T03:42:49.875Z,1.88
2022-09-09T03:45:23.259Z,1.95
2022-09-09T03:47:52.399Z,3.78
2022-09-09T03:50:21.357Z,1.13
2022-09-09T03:52:51.474Z,1.65
2022-09-09T03:55:24.279Z,2.35
2022-09-09T03:57:53.577Z,1.75
2022-09-09T04:00:24.034Z,3.13
2022-09-09T04:02:55.762Z,2.35
2022-09-09T04:05:24.895Z,1.85
2022-09-09T04:07:53.942Z,1.77
2022-09-09T04:10:24.841Z,2.22
2022-09-09T04:12:55.399Z,2.30
2022-09-09T04:15:25.932Z,6.00
2022-09-09T04:17:54.927Z,3.42
2022-09-09T04:20:24.360Z,2.13
2022-09-09T04:22:54.056Z,2.92
2022-09-09T04:25:23.353Z,1.40
2022-09-09T04:27:56.053Z,2.15
2022-09-09T04:30:28.485Z,4.28
2022-09-09T04:32:58.701Z,1.92
2022-09-09T04:35:28.390Z,4.40
2022-09-09T04:37:58.650Z,3.28
2022-09-09T04:40:28.417Z,1.52
2022-09-09T04:42:57.784Z,1.98
2022-09-09T04:45:28.448Z,2.92
2022-09-09T04:47:57.470Z,1.85
2022-09-09T04:50:26.890Z,2.65
2022-09-09T04:53:03.068Z,2.75
2022-09-09T04:55:32.560Z,2.03
2022-09-09T04:58:06.235Z,2.30
2022-09-09T05:00:37.684Z,1.70
2022-09-09T05:03:09.968Z,1.40
2022-09-09T05:05:39.549Z,3.60
2022-09-09T05:08:11.338Z,1.75
2022-09-09T05:10:42.979Z,2.47
2022-09-09T05:13:12.365Z,3.30
2022-09-09T05:15:44.286Z,2.95
2022-09-09T05:18:13.825Z,1.58
2022-09-09T05:20:43.693Z,1.65
2022-09-09T05:23:14.442Z,1.27
2022-09-09T05:25:43.787Z,2.92
2022-09-09T05:28:12.732Z,1.92
2022-09-09T05:30:43.876Z,1.25
2022-09-09T05:33:13.357Z,4.20
2022-09-09T05:35:42.483Z,1.52
2022-09-09T05:38:11.573Z,2.97
2022-09-09T05:40:43.623Z,1.92
2022-09-09T05:43:12.692Z,1.13
2022-09-09T05:45:41.648Z,1.23
2022-09-09T05:48:11.985Z,1.63
2022-09-09T05:50:41.024Z,1.65
2022-09-09T05:53:10.182Z,2.30
2022-09-09T05:55:39.505Z,1.42
2022-09-09T05:58:08.436Z,1.15
2022-09-09T06:00:38.767Z,0.82
2022-09-09T06:03:07.934Z,1.63
2022-09-09T06:05:38.582Z,0.73
2022-09-09T06:08:08.403Z,1.10
2022-09-09T06:10:37.439Z,2.88
2022-09-09T06:13:06.545Z,1.73
2022-09-09T06:15:35.703Z,0.82
2022-09-09T06:18:05.993Z,0.90
2022-09-09T06:20:35.801Z,1.17
2022-09-09T06:23:06.353Z,3.95
2022-09-09T06:25:36.076Z,0.82
2022-09-09T06:28:05.299Z,1.00
2022-09-09T06:30:34.751Z,1.48
2022-09-09T06:33:03.789Z,0.80
2022-09-09T06:35:32.733Z,0.93
2022-09-09T06:38:02.062Z,1.08
2022-09-09T06:40:32.659Z,2.05
2022-09-09T06:43:03.194Z,0.90
2022-09-09T06:45:38.313Z,1.90
2022-09-09T06:48:07.335Z,0.70
2022-09-09T06:50:37.018Z,2.25
2022-09-09T06:53:06.871Z,0.50
2022-09-09T06:55:37.486Z,1.20
2022-09-09T06:58:10.903Z,1.60
2022-09-09T07:00:40.462Z,0.68
2022-09-09T07:03:09.592Z,0.50
2022-09-09T07:05:39.399Z,0.65
2022-09-09T07:08:08.302Z,0.50
2022-09-09T07:10:38.741Z,2.33
2022-09-09T07:13:08.692Z,0.50
2022-09-09T07:15:37.753Z,0.88
2022-09-09T07:18:06.826Z,0.70
2022-09-09T07:20:35.939Z,0.98
2022-09-09T07:23:05.299Z,1.00
2022-09-09T07:25:34.473Z,0.57
2022-09-09T07:28:05.640Z,0.75
2022-09-09T07:30:34.654Z,1.25
2022-09-09T07:33:04.474Z,1.00
2022-09-09T07:35:34.543Z,0.50
2022-09-09T07:38:04.323Z,3.42
2022-09-09T07:40:33.301Z,0.88
2022-09-09T07:43:02.802Z,0.90
2022-09-09T07:45:34.512Z,0.55
2022-09-09T07:48:03.553Z,0.90
2022-09-09T07:50:33.288Z,0.63
2022-09-09T07:53:03.574Z,0.80
2022-09-09T07:55:32.710Z,0.75
2022-09-09T07:58:01.706Z,1.23
2022-09-09T08:00:30.629Z,0.60
2022-09-09T08:03:03.135Z,0.90
2022-09-09T08:05:32.690Z,0.50
2022-09-09T08:08:01.822Z,0.50
2022-09-09T08:10:31.103Z,0.80
2022-09-09T08:13:17.484Z,0.38
2022-09-09T08:15:47.959Z,0.60
2022-09-09T08:18:18.609Z,0.50
2022-09-09T08:20:47.910Z,0.68
2022-09-09T08:23:17.339Z,0.45
2022-09-09T08:25:46.822Z,0.60
2022-09-09T08:28:16.068Z,0.50
2022-09-09T08:30:45.020Z,0.68
2022-09-09T08:33:14.130Z,4.28
2022-09-09T08:35:53.913Z,0.55
2022-09-09T08:38:23.186Z,0.40
2022-09-09T08:41:00.518Z,0.68
2022-09-09T08:43:33.413Z,0.93
2022-09-09T08:46:10.032Z,0.73
2022-09-09T08:48:54.419Z,1.25
2022-09-09T08:51:29.488Z,0.53
2022-09-09T08:54:03.458Z,0.70
2022-09-09T08:56:35.117Z,1.67
2022-09-09T08:59:06.522Z,0.50
2022-09-09T09:01:53.302Z,0.70
2022-09-09T09:04:55.368Z,0.50
2022-09-09T09:07:38.221Z,0.60
2022-09-09T09:10:37.984Z,0.50
2022-09-09T09:13:14.267Z,0.65
2022-09-09T09:15:46.641Z,0.70
2022-09-09T09:18:16.976Z,3.53
2022-09-09T09:20:56.631Z,0.75
2022-09-09T09:23:34.259Z,1.02
2022-09-09T09:26:03.343Z,0.65
2022-09-09T09:28:37.307Z,0.70
2022-09-09T09:31:14.955Z,1.90
2022-09-09T09:33:51.032Z,1.67
2022-09-09T09:36:23.207Z,1.90
2022-09-09T09:41:51.194Z,1.02
2022-09-09T09:44:29.159Z,1.75
2022-09-09T09:47:10.101Z,0.73
2022-09-09T09:49:40.537Z,0.75
2022-09-09T09:52:19.324Z,0.77
2022-09-09T09:54:49.784Z,1.65
2022-09-09T09:57:20.507Z,1.73
2022-09-09T09:59:49.939Z,0.88
2022-09-09T10:02:28.303Z,0.95
2022-09-09T10:05:16.689Z,0.98
2022-09-09T10:07:49.317Z,1.25
2022-09-09T10:10:27.145Z,1.48
2022-09-09T10:13:03.386Z,0.90
2022-09-09T10:15:42.172Z,0.60
2022-09-09T10:18:33.666Z,2.35
2022-09-09T10:21:09.186Z,2.38
2022-09-09T10:23:54.589Z,0.75
2022-09-09T10:26:38.424Z,0.82
2022-09-09T10:29:34.139Z,1.67
2022-09-09T10:32:17.690Z,0.80
2022-09-09T10:34:58.439Z,1.25
2022-09-09T10:37:40.840Z,0.65
2022-09-09T10:40:25.774Z,0.95
2022-09-09T10:43:03.461Z,0.45
2022-09-09T10:45:39.779Z,1.23
2022-09-09T10:48:32.148Z,0.60
2022-09-09T10:51:16.894Z,2.08
2022-09-09T10:53:55.724Z,1.27
2022-09-09T10:56:26.572Z,0.80
2022-09-09T10:59:02.797Z,1.73
2022-09-09T11:01:38.887Z,0.65
2022-09-09T11:04:15.836Z,0.90
2022-09-09T11:06:53.523Z,1.92
2022-09-09T11:09:30.702Z,0.75
2022-09-09T11:12:03.376Z,0.85
2022-09-09T11:14:41.476Z,2.92
2022-09-09T11:17:17.946Z,0.90
2022-09-09T11:19:47.410Z,0.65
2022-09-09T11:22:28.494Z,1.38
2022-09-09T11:25:10.682Z,2.47
2022-09-09T11:27:51.434Z,4.03
2022-09-09T11:30:54.951Z,0.80
2022-09-09T11:34:00.246Z,4.18
2022-09-09T11:36:47.643Z,1.38
2022-09-09T11:39:45.455Z,0.60
2022-09-09T11:42:21.402Z,1.23
2022-09-09T11:44:50.683Z,0.50
2022-09-09T11:47:30.460Z,4.72
2022-09-09T11:50:11.078Z,0.70
2022-09-09T11:52:43.696Z,1.33
2022-09-09T11:55:14.485Z,1.67
2022-09-09T11:57:48.944Z,1.35
2022-09-09T12:00:38.144Z,4.13
2022-09-09T12:03:29.555Z,1.92
2022-09-09T12:06:01.672Z,0.95
2022-09-09T12:08:31.777Z,0.60
2022-09-09T12:11:04.836Z,0.75
2022-09-09T12:13:35.165Z,1.17
2022-09-09T12:16:06.572Z,0.70
2022-09-09T12:18:39.311Z,2.30
2022-09-09T12:21:18.021Z,3.65
2022-09-09T12:23:52.690Z,1.20
2022-09-09T12:26:32.723Z,2.08
2022-09-09T12:29:14.831Z,2.25
2022-09-09T12:31:49.463Z,2.50
2022-09-09T12:34:29.207Z,1.95
2022-09-09T12:37:04.584Z,1.75
2022-09-09T12:39:43.648Z,1.10
2022-09-09T12:42:19.684Z,0.60
2022-09-09T12:45:00.132Z,1.80
2022-09-09T12:47:37.515Z,1.40
2022-09-09T12:50:18.419Z,1.65
2022-09-09T12:52:48.694Z,0.70
2022-09-09T12:55:22.656Z,2.58
2022-09-09T12:57:52.841Z,5.15
2022-09-09T13:00:23.708Z,1.30
2022-09-09T13:02:54.263Z,1.92
2022-09-09T13:05:28.072Z,1.20
2022-09-09T13:08:04.101Z,0.60
2022-09-09T13:10:52.473Z,1.55
2022-09-09T13:13:27.227Z,1.05
2022-09-09T13:15:58.449Z,0.80
2022-09-09T13:18:30.674Z,1.23
2022-09-09T13:21:01.616Z,2.70
2022-09-09T13:23:33.472Z,1.02
2022-09-09T13:26:07.180Z,1.75
2022-09-09T13:28:36.574Z,0.90
2022-09-09T13:31:08.139Z,0.60
2022-09-09T13:33:38.492Z,1.75
2022-09-09T13:36:11.533Z,1.10
2022-09-09T13:38:55.595Z,0.95
2022-09-09T13:41:26.686Z,1.85
2022-09-09T13:43:56.554Z,1.02
2022-09-09T13:46:31.272Z,1.35
2022-09-09T13:49:02.298Z,1.27
2022-09-09T13:51:38.351Z,1.17
2022-09-09T13:54:08.490Z,1.95
2022-09-09T13:56:38.089Z,3.80
2022-09-09T13:59:14.244Z,3.67
2022-09-09T14:01:43.388Z,3.58
2022-09-09T14:04:13.164Z,4.57
2022-09-09T14:06:44.593Z,3.60
2022-09-09T14:09:16.767Z,2.67
2022-09-09T14:11:46.565Z,1.55
2022-09-09T14:14:16.123Z,1.85
2022-09-09T14:16:45.523Z,0.60
2022-09-09T14:19:14.623Z,1.67
2022-09-09T14:21:45.064Z,0.88
2022-09-09T14:24:15.208Z,1.08
2022-09-09T14:26:44.241Z,0.85
2022-09-09T14:29:13.213Z,0.80
2022-09-09T14:31:42.234Z,1.98
2022-09-09T14:34:12.086Z,2.75
2022-09-09T14:36:41.823Z,2.67
2022-09-09T14:39:12.635Z,1.38
2022-09-09T14:41:41.747Z,1.08
2022-09-09T14:44:11.353Z,2.42
2022-09-09T14:46:40.593Z,1.52
2022-09-09T14:49:09.484Z,2.83
2022-09-09T14:51:38.536Z,1.88
2022-09-09T14:54:07.657Z,1.55
2022-09-09T14:56:38.713Z,1.23
2022-09-09T14:59:07.706Z,2.03
2022-09-09T15:01:36.719Z,1.73
2022-09-09T15:04:07.422Z,2.92
2022-09-09T15:06:39.561Z,2.00
2022-09-09T15:09:08.683Z,0.93
2022-09-09T15:11:39.877Z,1.52
2022-09-09T15:14:12.735Z,1.70
2022-09-09T15:16:42.757Z,1.23
2022-09-09T15:19:11.945Z,1.95
2022-09-09T15:21:40.981Z,1.63
2022-09-09T15:24:10.242Z,1.38
2022-09-09T15:26:41.099Z,1.20
2022-09-09T15:29:10.357Z,2.97
2022-09-09T15:31:39.996Z,1.65
2022-09-09T15:34:10.573Z,2.78
2022-09-09T15:36:41.046Z,2.75
2022-09-09T15:39:13.705Z,1.50
2022-09-09T15:41:44.787Z,1.00
2022-09-09T15:44:14.432Z,1.58
2022-09-09T15:46:45.339Z,1.40
2022-09-09T15:49:16.000Z,2.40
2022-09-09T15:51:47.352Z,1.20
2022-09-09T15:54:19.201Z,4.35
2022-09-09T15:56:55.897Z,2.47
2022-09-09T15:59:25.460Z,2.78
2022-09-09T16:01:54.771Z,1.55
2022-09-09T16:04:25.544Z,2.50
2022-09-09T16:06:56.765Z,3.17
2022-09-09T16:09:25.654Z,4.28
2022-09-09T16:11:59.960Z,1.50
2022-09-09T16:14:29.281Z,5.20
2022-09-09T16:16:58.394Z,7.43
2022-09-09T16:19:28.906Z,3.10
2022-09-09T16:21:59.211Z,2.95
2022-09-09T16:24:29.411Z,3.05
2022-09-09T16:26:59.698Z,5.85
2022-09-09T16:29:28.813Z,3.80
2022-09-09T16:32:03.279Z,3.80
2022-09-09T16:37:04.172Z,2.78
2022-09-09T16:39:33.218Z,4.57
2022-09-09T16:42:04.255Z,2.50
2022-09-09T16:44:33.395Z,3.85
2022-09-09T16:47:02.332Z,3.33
2022-09-09T16:49:31.325Z,5.53
2022-09-09T16:52:01.485Z,4.82
2022-09-09T16:54:30.731Z,7.32
2022-09-09T16:57:01.332Z,4.82
2022-09-09T16:59:32.738Z,4.57
2022-09-09T17:02:02.160Z,4.68
2022-09-09T17:04:32.118Z,2.90
2022-09-09T17:07:01.674Z,4.63
2022-09-09T17:09:32.488Z,8.45
2022-09-09T17:12:02.020Z,2.65
2022-09-09T17:14:33.350Z,8.70
2022-09-09T17:17:24.683Z,5.10
2022-09-09T17:19:52.541Z,4.93
2022-09-09T17:22:22.289Z,2.70
2022-09-09T17:24:54.580Z,5.22
2022-09-09T17:27:23.606Z,4.68
2022-09-09T17:29:54.117Z,3.95
2022-09-09T17:32:23.220Z,6.10
2022-09-09T17:34:53.647Z,3.85
2022-09-09T17:37:22.952Z,3.38
2022-09-09T17:39:52.078Z,4.30
2022-09-09T17:42:21.215Z,4.10
2022-09-09T17:44:50.287Z,4.13
2022-09-09T17:47:21.238Z,4.97
2022-09-09T17:49:50.286Z,4.30
2022-09-09T17:52:19.522Z,2.97
2022-09-09T17:54:48.594Z,3.92
2022-09-09T17:57:18.518Z,1.88
2022-09-09T17:59:47.562Z,5.35
2022-09-09T18:02:17.051Z,2.40
2022-09-09T18:04:48.851Z,2.80
2022-09-09T18:07:18.163Z,4.03
2022-09-09T18:09:47.330Z,5.20
2022-09-09T18:12:16.215Z,3.20
2022-09-09T18:14:45.172Z,2.60
2022-09-09T18:17:14.467Z,4.85
2022-09-09T18:19:43.585Z,4.13
2022-09-09T18:22:13.818Z,5.03
2022-09-09T18:24:45.573Z,4.88
2022-09-09T18:27:14.644Z,5.97
2022-09-09T18:29:43.679Z,7.10
2022-09-09T18:32:12.626Z,5.47
2022-09-09T18:34:41.721Z,5.95
2022-09-09T18:37:10.674Z,14.35
2022-09-09T18:39:41.043Z,4.78
2022-09-09T18:42:10.110Z,7.85
2022-09-09T18:44:39.130Z,8.25
2022-09-09T18:47:08.732Z,8.00
2022-09-09T18:49:37.659Z,8.00
2022-09-09T18:52:10.917Z,6.80
2022-09-09T18:54:46.134Z,6.32
2022-09-09T18:57:15.488Z,7.88
2022-09-09T18:59:44.459Z,7.80
2022-09-09T19:02:13.496Z,7.60
2022-09-09T19:04:42.548Z,10.68
2022-09-09T19:07:12.194Z,13.38
2022-09-09T19:09:42.742Z,7.68
2022-09-09T19:12:11.788Z,13.23
2022-09-09T19:14:40.769Z,11.38
2022-09-09T19:17:09.663Z,13.18
2022-09-09T19:19:38.664Z,8.52
2022-09-09T19:22:11.715Z,7.30
2022-09-09T19:24:45.566Z,6.47
2022-09-09T19:27:14.558Z,8.07
2022-09-09T19:29:44.646Z,10.85
2022-09-09T19:35:02.694Z,9.88
2022-09-09T19:37:32.833Z,7.20
2022-09-09T19:40:06.859Z,5.15
2022-09-09T19:42:36.245Z,7.38
2022-09-09T19:45:07.017Z,5.95
2022-09-09T19:47:36.027Z,7.38
2022-09-09T19:50:05.890Z,5.82
2022-09-09T19:52:34.951Z,6.65
2022-09-09T19:55:05.806Z,4.80
2022-09-09T19:57:35.800Z,6.38
2022-09-09T20:00:05.810Z,6.40
2022-09-09T20:02:58.000Z,5.38
2022-09-09T20:05:33.542Z,5.82
2022-09-09T20:08:02.831Z,4.90
2022-09-09T20:10:33.243Z,6.18
2022-09-09T20:13:02.437Z,6.65
2022-09-09T20:15:31.310Z,5.80
2022-09-09T20:18:00.415Z,6.28
2022-09-09T20:20:29.466Z,5.28
2022-09-09T20:22:59.408Z,6.22
2022-09-09T20:25:29.482Z,5.32
2022-09-09T20:28:00.055Z,7.38
2022-09-09T20:30:29.387Z,7.13
2022-09-09T20:32:58.603Z,9.18
2022-09-09T20:35:29.932Z,7.95
2022-09-09T20:37:59.061Z,8.15
2022-09-09T20:40:32.816Z,6.25
2022-09-09T20:43:04.027Z,8.68
2022-09-09T20:45:38.176Z,6.65
2022-09-09T20:48:07.912Z,8.05
2022-09-09T20:50:37.253Z,6.93
2022-09-09T20:53:06.616Z,6.65
2022-09-09T20:55:35.768Z,8.05
2022-09-09T20:58:06.714Z,8.27
2022-09-09T21:00:36.210Z,7.03
2022-09-09T21:03:05.843Z,8.27
2022-09-09T21:05:35.150Z,6.80
2022-09-09T21:08:04.676Z,7.22
2022-09-09T21:10:33.801Z,7.22
2022-09-09T21:13:03.024Z,9.27
2022-09-09T21:15:33.685Z,8.73
2022-09-09T21:18:02.918Z,8.18
2022-09-09T21:20:31.995Z,8.30
2022-09-09T21:23:01.188Z,7.55
2022-09-09T21:25:30.330Z,7.03
2022-09-09T21:27:59.528Z,7.85
2022-09-09T21:30:38.238Z,7.93
2022-09-09T21:33:12.124Z,9.07
2022-09-09T21:35:42.506Z,6.22
2022-09-09T21:38:14.864Z,7.00
2022-09-09T21:40:44.807Z,8.00
2022-09-09T21:43:15.399Z,8.88
2022-09-09T21:45:44.748Z,11.80
2022-09-09T21:48:18.643Z,10.32
2022-09-09T21:50:49.370Z,8.65
2022-09-09T21:53:20.430Z,7.25
2022-09-09T21:55:50.527Z,15.05
2022-09-09T21:58:19.836Z,6.75
2022-09-09T22:00:49.192Z,12.02
2022-09-09T22:03:20.087Z,10.65
2022-09-09T22:05:53.699Z,7.03
2022-09-09T22:08:23.370Z,7.78
2022-09-09T22:10:52.362Z,8.85
2022-09-09T22:13:21.373Z,11.05
2022-09-09T22:15:51.106Z,6.25
2022-09-09T22:18:21.297Z,8.45
2022-09-09T22:20:50.167Z,11.52
2022-09-09T22:23:19.214Z,8.57
2022-09-09T22:25:50.789Z,10.82
2022-09-09T22:28:20.431Z,14.20
2022-09-09T22:30:49.627Z,11.52
2022-09-09T22:33:20.953Z,12.40
2022-09-09T22:35:52.136Z,8.02
2022-09-09T22:38:22.329Z,8.68
2022-09-09T22:40:51.947Z,10.90
2022-09-09T22:43:22.612Z,7.68
2022-09-09T22:45:52.145Z,8.20
2022-09-09T22:48:21.131Z,8.40
2022-09-09T22:50:51.491Z,8.40
2022-09-09T22:53:20.451Z,7.55
2022-09-09T22:55:59.822Z,8.68
2022-09-09T22:58:30.302Z,7.38
2022-09-09T23:01:00.604Z,8.38
2022-09-09T23:03:33.280Z,7.10
2022-09-09T23:06:04.676Z,11.07
2022-09-09T23:08:35.624Z,8.73
2022-09-09T23:11:08.934Z,10.73
2022-09-09T23:13:41.604Z,7.38
2022-09-09T23:16:11.875Z,16.50
2022-09-09T23:18:41.569Z,26.08
2022-09-09T23:21:14.739Z,30.17
2022-09-09T23:23:45.572Z,17.27
2022-09-09T23:26:21.078Z,16.98
2022-09-09T23:28:51.989Z,15.13
2022-09-09T23:31:25.011Z,11.40
2022-09-09T23:33:54.568Z,10.73
2022-09-09T23:36:26.281Z,12.05
2022-09-09T23:38:56.327Z,11.13
2022-09-09T23:41:25.710Z,12.48
2022-09-09T23:43:55.388Z,9.20
2022-09-09T23:46:28.747Z,7.50
2022-09-09T23:48:59.526Z,10.20
2022-09-09T23:51:34.903Z,8.80
2022-09-09T23:54:05.364Z,9.93
2022-09-09T23:56:37.950Z,10.48
2022-09-09T23:59:07.541Z,8.30
